Time;durP1;ratioP1;P1;durP2;ratioP2;P2;SDS_P1;SDS_P2;PMS_P1;PMS_P2;Temp;Humidity;BMP_temperature;BMP_pressure;BME280_temperature;BME280_humidity;BME280_pressure;Samples;Min_cycle;Max_cycle;Signal;HPM_P1;HPM_P2
2022/11/20 00:00:24;;;;;;;;;;;-4.60;99.90;;;;;;5095270;28;19915;-72
2022/11/20 00:02:50;;;;;;;;;;;-4.70;99.90;;;;;;5060468;28;20353;-72
2022/11/20 00:05:15;;;;;;;;;;;-4.70;99.90;;;;;;5095233;28;19943;-72
2022/11/20 00:07:41;;;;;;;;;;;-4.70;99.90;;;;;;5076641;28;19908;-73
2022/11/20 00:10:06;;;;;;;;;;;-4.80;99.90;;;;;;5095107;28;19914;-72
2022/11/20 00:12:32;;;;;;;;;;;-4.80;99.90;;;;;;5060104;28;20281;-72
2022/11/20 00:14:57;;;;;;;;;;;-4.80;99.90;;;;;;5060066;28;19908;-72
2022/11/20 00:17:23;;;;;;;;;;;-4.80;99.90;;;;;;5060156;28;19934;-72
2022/11/20 00:19:48;;;;;;;;;;;-4.80;99.90;;;;;;5095298;28;19912;-72
2022/11/20 00:22:14;;;;;;;;;;;-4.80;99.90;;;;;;5060010;28;19956;-72
2022/11/20 00:24:39;;;;;;;;;;;-4.80;99.90;;;;;;5094698;28;19909;-73
2022/11/20 00:27:05;;;;;;;;;;;-4.80;99.90;;;;;;5076428;28;19908;-73
2022/11/20 00:29:30;;;;;;;;;;;-4.80;99.90;;;;;;5076884;28;19908;-73
2022/11/20 00:31:56;;;;;;;;;;;-4.80;99.90;;;;;;5076758;28;19908;-73
2022/11/20 00:34:21;;;;;;;;;;;-4.70;99.90;;;;;;5076676;28;20382;-72
2022/11/20 00:36:47;;;;;;;;;;;-4.80;99.90;;;;;;5076129;28;19913;-72
2022/11/20 00:39:12;;;;;;;;;;;-4.80;99.90;;;;;;5094707;28;19967;-73
2022/11/20 00:41:37;;;;;;;;;;;-4.90;99.90;;;;;;5094575;28;19908;-73
2022/11/20 00:44:03;;;;;;;;;;;-4.90;99.90;;;;;;5094384;28;19914;-72
2022/11/20 00:46:29;;;;;;;;;;;-4.90;99.90;;;;;;5076680;28;19912;-73
2022/11/20 00:48:54;;;;;;;;;;;-4.80;99.90;;;;;;5059597;28;19908;-72
2022/11/20 00:51:21;;;;;;;;;;;-4.90;99.90;;;;;;5094589;28;19909;-72
2022/11/20 00:53:47;;;;;;;;;;;-4.90;99.90;;;;;;5075963;28;19913;-72
2022/11/20 00:56:14;;;;;;;;;;;-4.90;99.90;;;;;;5094146;28;19916;-73
2022/11/20 00:58:40;;;;;;;;;;;-5.00;99.90;;;;;;5094300;28;20262;-72
2022/11/20 01:01:07;;;;;;;;;;;-5.00;99.90;;;;;;5076408;28;19915;-72
2022/11/20 01:03:33;;;;;;;;;;;-5.00;99.90;;;;;;5094227;28;19908;-73
2022/11/20 01:05:59;;;;;;;;;;;-5.00;99.90;;;;;;5059300;28;19908;-73
2022/11/20 01:08:25;;;;;;;;;;;-5.10;99.90;;;;;;5076199;28;19909;-72
2022/11/20 01:10:50;;;;;;;;;;;-5.10;99.90;;;;;;5094480;28;19991;-73
2022/11/20 01:13:47;;;;;;;;;;;-5.10;99.90;;;;;;5076358;28;19908;-72
2022/11/20 01:16:02;;;;;;;;;;;-5.10;99.90;;;;;;5093914;28;20422;-73
2022/11/20 01:18:28;;;;;;;;;;;-5.10;99.90;;;;;;5077509;28;19925;-73
2022/11/20 01:20:53;;;;;;;;;;;-5.10;99.90;;;;;;5079876;28;19908;-72
2022/11/20 01:23:18;;;;;;;;;;;-5.10;99.90;;;;;;5098038;28;19919;-72
2022/11/20 01:25:44;;;;;;;;;;;-5.10;99.90;;;;;;5098178;28;19908;-73
2022/11/20 01:28:09;;;;;;;;;;;-5.10;99.90;;;;;;5063427;28;20280;-73
2022/11/20 01:30:35;;;;;;;;;;;-5.10;99.90;;;;;;5062910;28;19908;-73
2022/11/20 01:33:00;;;;;;;;;;;-5.20;99.90;;;;;;5097827;28;19909;-73
2022/11/20 01:35:26;;;;;;;;;;;-5.20;99.90;;;;;;5080152;28;19908;-73
2022/11/20 01:37:51;;;;;;;;;;;-5.20;99.90;;;;;;5079513;28;19919;-73
2022/11/20 01:40:17;;;;;;;;;;;-5.20;99.90;;;;;;5079756;28;19982;-72
2022/11/20 01:45:52;;;;;;;;;;;-5.20;99.90;;;;;;5097556;28;19957;-73
2022/11/20 01:48:18;;;;;;;;;;;-5.20;99.90;;;;;;5079533;28;19908;-73
2022/11/20 01:50:44;;;;;;;;;;;-5.30;99.90;;;;;;5079361;28;19958;-73
2022/11/20 01:53:12;;;;;;;;;;;-5.30;99.90;;;;;;5079623;28;20210;-73
2022/11/20 01:55:40;;;;;;;;;;;-5.30;99.90;;;;;;5079451;28;19908;-75
2022/11/20 01:58:06;;;;;;;;;;;-5.20;99.90;;;;;;5079361;28;20346;-73
2022/11/20 02:00:31;;;;;;;;;;;-5.10;99.90;;;;;;5097621;28;20015;-73
2022/11/20 02:02:58;;;;;;;;;;;-5.00;99.90;;;;;;5079249;28;19944;-73
2022/11/20 02:05:43;;;;;;;;;;;-4.80;99.90;;;;;;5062641;28;19958;-73
2022/11/20 02:08:09;;;;;;;;;;;-4.70;99.90;;;;;;5097324;28;19913;-73
2022/11/20 02:10:35;;;;;;;;;;;-4.60;99.90;;;;;;5062375;28;19908;-73
2022/11/20 02:15:46;;;;;;;;;;;-4.30;99.90;;;;;;5096801;28;20370;-73
2022/11/20 02:18:14;;;;;;;;;;;-4.20;99.90;;;;;;5096987;28;20270;-73
2022/11/20 02:20:41;;;;;;;;;;;-4.10;99.90;;;;;;5079054;28;19912;-73
2022/11/20 02:23:26;;;;;;;;;;;-4.00;99.90;;;;;;5078840;28;19908;-73
2022/11/20 02:25:53;;;;;;;;;;;-3.90;99.90;;;;;;5078940;28;19915;-73
2022/11/20 02:28:19;;;;;;;;;;;-3.80;99.90;;;;;;5096974;28;19908;-73
2022/11/20 02:30:44;;;;;;;;;;;-3.70;99.90;;;;;;5078585;28;19908;-74
2022/11/20 02:33:09;;;;;;;;;;;-3.60;99.90;;;;;;5079213;28;19908;-73
2022/11/20 02:38:15;;;;;;;;;;;-3.40;99.90;;;;;;5066379;22;19925;-73
2022/11/20 02:40:41;;;;;;;;;;;-3.40;99.90;;;;;;5033089;28;20012;-74
2022/11/20 02:43:07;;;;;;;;;;;-3.30;99.90;;;;;;5050928;28;19909;-74
2022/11/20 02:45:32;;;;;;;;;;;-3.30;99.90;;;;;;5050937;28;20367;-75
2022/11/20 02:47:58;;;;;;;;;;;-3.20;99.90;;;;;;5050890;28;19979;-75
2022/11/20 02:50:23;;;;;;;;;;;-3.20;99.90;;;;;;5050805;28;20263;-73
2022/11/20 02:52:49;;;;;;;;;;;-3.10;99.90;;;;;;5032983;28;19909;-75
2022/11/20 02:55:14;;;;;;;;;;;-3.10;99.90;;;;;;5050745;28;20426;-74
2022/11/20 02:57:40;;;;;;;;;;;-3.00;99.90;;;;;;5050612;28;19917;-74
2022/11/20 03:00:06;;;;;;;;;;;-3.00;99.90;;;;;;5033112;28;20358;-75
2022/11/20 03:02:32;;;;;;;;;;;-2.90;99.90;;;;;;5050651;28;19909;-76
2022/11/20 03:04:58;;;;;;;;;;;-2.80;99.90;;;;;;5050654;28;19909;-75
2022/11/20 03:07:23;;;;;;;;;;;-2.80;99.90;;;;;;5050693;28;19909;-75
2022/11/20 03:09:49;;;;;;;;;;;-2.80;99.90;;;;;;5050575;28;19913;-75
2022/11/20 03:12:14;;;;;;;;;;;-2.70;99.90;;;;;;5032612;28;19916;-74
2022/11/20 03:14:40;;;;;;;;;;;-2.70;99.90;;;;;;5032648;28;20000;-76
2022/11/20 03:17:05;;;;;;;;;;;-2.60;99.90;;;;;;5032433;28;20425;-75
2022/11/20 03:19:31;;;;;;;;;;;-2.60;99.90;;;;;;5032529;28;19909;-74
2022/11/20 03:21:56;;;;;;;;;;;-2.60;99.90;;;;;;5050231;28;19949;-72
2022/11/20 03:24:21;;;;;;;;;;;-2.60;99.90;;;;;;5032448;28;19915;-75
2022/11/20 03:26:47;;;;;;;;;;;-2.50;99.90;;;;;;5050152;28;20406;-73
2022/11/20 03:29:12;;;;;;;;;;;-2.50;99.90;;;;;;5050057;28;20008;-75
2022/11/20 03:31:40;;;;;;;;;;;-2.40;99.90;;;;;;5050023;28;19920;-74
2022/11/20 03:34:06;;;;;;;;;;;-2.40;99.90;;;;;;5050060;28;20290;-75
2022/11/20 03:36:32;;;;;;;;;;;-2.40;99.90;;;;;;5031827;28;19920;-75
2022/11/20 03:38:58;;;;;;;;;;;-2.40;99.90;;;;;;5049911;28;19908;-73
2022/11/20 03:41:25;;;;;;;;;;;-2.40;99.90;;;;;;5049831;28;19916;-75
2022/11/20 03:43:51;;;;;;;;;;;-2.30;99.90;;;;;;5032107;28;19909;-67
2022/11/20 03:46:17;;;;;;;;;;;-2.30;99.90;;;;;;5032385;28;19917;-67
2022/11/20 03:48:43;;;;;;;;;;;-2.30;99.90;;;;;;5041152;28;20367;-67
2022/11/20 03:51:09;;;;;;;;;;;-2.20;99.90;;;;;;5036420;28;19965;-67
2022/11/20 03:53:35;;;;;;;;;;;-2.20;99.90;;;;;;5036459;28;19910;-67
2022/11/20 03:56:00;;;;;;;;;;;-2.20;99.90;;;;;;5036255;28;19920;-67
2022/11/20 03:58:26;;;;;;;;;;;-2.20;99.90;;;;;;5018636;28;19909;-68
2022/11/20 04:00:51;;;;;;;;;;;-2.10;99.90;;;;;;5036233;28;19959;-67
2022/11/20 04:03:17;;;;;;;;;;;-2.10;99.90;;;;;;5018605;28;19909;-67
2022/11/20 04:05:42;;;;;;;;;;;-2.10;99.90;;;;;;5036154;28;19909;-67
2022/11/20 04:08:08;;;;;;;;;;;-2.10;99.90;;;;;;5036158;28;19913;-67
2022/11/20 04:10:33;;;;;;;;;;;-2.10;99.90;;;;;;5036088;28;20344;-67
2022/11/20 04:12:59;;;;;;;;;;;-2.10;99.90;;;;;;5036288;28;19909;-67
2022/11/20 04:15:24;;;;;;;;;;;-2.00;99.90;;;;;;5035963;28;19909;-67
2022/11/20 04:17:50;;;;;;;;;;;-2.00;99.90;;;;;;5035837;28;19913;-67
2022/11/20 04:20:15;;;;;;;;;;;-2.00;99.90;;;;;;5036161;28;20359;-67
2022/11/20 04:22:41;;;;;;;;;;;-2.00;99.90;;;;;;5035795;28;19909;-68
2022/11/20 04:25:06;;;;;;;;;;;-1.90;99.90;;;;;;5035797;28;19909;-67
2022/11/20 04:27:32;;;;;;;;;;;-1.90;99.90;;;;;;5017864;28;19915;-66
2022/11/20 04:29:57;;;;;;;;;;;-1.90;99.90;;;;;;5035673;28;20004;-66
2022/11/20 04:32:23;;;;;;;;;;;-1.80;99.90;;;;;;5035661;28;19909;-66
2022/11/20 04:34:48;;;;;;;;;;;-1.90;99.90;;;;;;5035573;28;19921;-65
2022/11/20 04:37:14;;;;;;;;;;;-1.90;99.90;;;;;;5035276;28;19924;-66
2022/11/20 04:39:39;;;;;;;;;;;-1.80;99.90;;;;;;5035485;28;19932;-67
2022/11/20 04:42:36;;;;;;;;;;;-1.70;99.90;;;;;;5035503;28;19951;-66
2022/11/20 04:44:50;;;;;;;;;;;-1.80;99.90;;;;;;5020569;28;19909;-65
2022/11/20 04:47:15;;;;;;;;;;;-1.80;99.90;;;;;;5035392;28;20003;-67
2022/11/20 04:49:41;;;;;;;;;;;-1.70;99.90;;;;;;5017719;28;19916;-67
2022/11/20 04:52:06;;;;;;;;;;;-1.70;99.90;;;;;;5035241;28;19909;-65
2022/11/20 04:54:32;;;;;;;;;;;-1.80;99.90;;;;;;5035253;28;19909;-68
2022/11/20 04:56:57;;;;;;;;;;;-1.80;99.90;;;;;;5035178;28;19924;-67
2022/11/20 04:59:23;;;;;;;;;;;-1.80;99.90;;;;;;5034844;28;19924;-67
2022/11/20 05:01:48;;;;;;;;;;;-1.80;99.90;;;;;;5034772;28;19913;-68
2022/11/20 05:04:13;;;;;;;;;;;-1.80;99.90;;;;;;5035080;28;20279;-67
2022/11/20 05:06:39;;;;;;;;;;;-1.90;99.90;;;;;;5034989;28;19909;-66
2022/11/20 05:09:04;;;;;;;;;;;-1.90;99.90;;;;;;5035043;28;20004;-67
2022/11/20 05:11:31;;;;;;;;;;;-1.90;99.90;;;;;;5034909;28;19916;-68
2022/11/20 05:13:58;;;;;;;;;;;-1.90;99.90;;;;;;5034881;28;19959;-68
2022/11/20 05:16:24;;;;;;;;;;;-1.90;99.90;;;;;;5034788;28;19913;-66
2022/11/20 05:18:50;;;;;;;;;;;-2.00;99.90;;;;;;5034841;28;19955;-67
2022/11/20 05:21:16;;;;;;;;;;;-2.00;99.90;;;;;;5034693;28;20367;-67
2022/11/20 05:23:42;;;;;;;;;;;-2.00;99.90;;;;;;5034947;28;19911;-67
2022/11/20 05:26:08;;;;;;;;;;;-2.00;99.90;;;;;;5034658;28;20283;-67
2022/11/20 05:28:33;;;;;;;;;;;-2.00;99.90;;;;;;5017060;28;19909;-65
2022/11/20 05:31:07;;;;;;;;;;;-2.00;99.90;;;;;;5034887;28;19916;-68
2022/11/20 05:33:33;;;;;;;;;;;-2.10;99.90;;;;;;5017001;28;20347;-67
2022/11/20 05:35:59;;;;;;;;;;;-2.10;99.90;;;;;;5034473;28;19913;-67
2022/11/20 05:38:24;;;;;;;;;;;-2.00;99.90;;;;;;5034277;28;19917;-68
2022/11/20 05:40:50;;;;;;;;;;;-2.10;99.90;;;;;;5034389;28;20406;-67
2022/11/20 05:43:15;;;;;;;;;;;-2.10;99.90;;;;;;5034305;28;19909;-67
2022/11/20 05:45:41;;;;;;;;;;;-2.10;99.90;;;;;;5034383;28;20362;-67
2022/11/20 05:48:06;;;;;;;;;;;-2.10;99.90;;;;;;5034340;28;19909;-67
2022/11/20 05:50:32;;;;;;;;;;;-2.20;99.90;;;;;;5034282;28;19915;-67
2022/11/20 05:52:58;;;;;;;;;;;-2.20;99.90;;;;;;5034159;28;19944;-67
2022/11/20 05:55:23;;;;;;;;;;;-2.30;99.90;;;;;;5034173;28;19959;-67
2022/11/20 05:57:48;;;;;;;;;;;-2.40;99.90;;;;;;5016289;28;19964;-67
2022/11/20 06:00:14;;;;;;;;;;;-2.50;99.90;;;;;;5016331;28;19910;-67
2022/11/20 06:02:40;;;;;;;;;;;-2.50;99.90;;;;;;5034051;28;19909;-67
2022/11/20 06:05:05;;;;;;;;;;;-2.60;99.90;;;;;;5034016;28;19956;-67
2022/11/20 06:07:31;;;;;;;;;;;-2.70;99.90;;;;;;5033959;28;19909;-68
2022/11/20 06:09:56;;;;;;;;;;;-2.80;99.90;;;;;;5033888;28;20023;-67
2022/11/20 06:12:22;;;;;;;;;;;-2.90;99.90;;;;;;5033901;28;19909;-67
2022/11/20 06:14:47;;;;;;;;;;;-2.90;99.90;;;;;;5016563;28;19909;-67
2022/11/20 06:17:13;;;;;;;;;;;-2.90;99.90;;;;;;5016030;28;19960;-67
2022/11/20 06:19:38;;;;;;;;;;;-3.00;99.90;;;;;;5033781;28;19917;-67
2022/11/20 06:22:04;;;;;;;;;;;-3.10;99.90;;;;;;4999729;28;20371;-68
2022/11/20 06:24:29;;;;;;;;;;;-3.20;99.90;;;;;;5016057;28;19971;-67
2022/11/20 06:26:54;;;;;;;;;;;-3.20;99.90;;;;;;5016104;28;19913;-67
2022/11/20 06:29:20;;;;;;;;;;;-3.30;99.90;;;;;;5033674;28;19909;-67
2022/11/20 06:31:45;;;;;;;;;;;-3.40;99.90;;;;;;5033663;28;19909;-67
2022/11/20 06:34:11;;;;;;;;;;;-3.40;99.90;;;;;;5033886;28;19909;-66
2022/11/20 06:36:36;;;;;;;;;;;-3.30;99.90;;;;;;5033348;28;20377;-67
2022/11/20 06:39:02;;;;;;;;;;;-3.40;99.90;;;;;;5033596;28;20004;-68
2022/11/20 06:41:28;;;;;;;;;;;-3.50;99.90;;;;;;5033613;28;20021;-68
2022/11/20 06:43:53;;;;;;;;;;;-3.50;99.90;;;;;;5015876;28;19913;-65
2022/11/20 06:46:19;;;;;;;;;;;-3.60;99.90;;;;;;5033508;28;19913;-67
2022/11/20 06:48:45;;;;;;;;;;;-3.60;99.90;;;;;;5033519;28;20310;-66
2022/11/20 06:51:10;;;;;;;;;;;-3.60;99.90;;;;;;5015816;28;19964;-66
2022/11/20 06:53:36;;;;;;;;;;;-3.70;99.90;;;;;;5016111;28;19909;-67
2022/11/20 06:56:02;;;;;;;;;;;-3.70;99.90;;;;;;5033384;28;19909;-67
2022/11/20 06:58:29;;;;;;;;;;;-3.80;99.90;;;;;;5033478;28;19944;-67
2022/11/20 07:00:58;;;;;;;;;;;-3.80;99.90;;;;;;5033652;28;19915;-66
2022/11/20 07:03:23;;;;;;;;;;;-3.80;99.90;;;;;;5033314;28;19955;-68
2022/11/20 07:05:49;;;;;;;;;;;-3.80;99.90;;;;;;5033278;28;20205;-66
2022/11/20 07:08:14;;;;;;;;;;;-3.80;99.90;;;;;;5033343;28;19916;-67
2022/11/20 07:10:39;;;;;;;;;;;-3.80;99.90;;;;;;5033299;28;19909;-66
2022/11/20 07:13:06;;;;;;;;;;;-3.80;99.90;;;;;;5033320;28;19992;-68
2022/11/20 07:15:32;;;;;;;;;;;-3.70;99.90;;;;;;5033211;28;19909;-67
2022/11/20 07:17:59;;;;;;;;;;;-3.60;99.90;;;;;;5033162;28;20074;-67
2022/11/20 07:20:25;;;;;;;;;;;-3.60;99.90;;;;;;5033433;28;19909;-67
2022/11/20 07:22:55;;;;;;;;;;;-3.60;99.90;;;;;;5033669;28;20401;-67
2022/11/20 07:25:20;;;;;;;;;;;-3.50;99.90;;;;;;5036957;28;19953;-65
2022/11/20 07:27:45;;;;;;;;;;;-3.40;99.90;;;;;;5036905;28;20322;-66
2022/11/20 07:30:11;;;;;;;;;;;-3.30;99.90;;;;;;5037074;28;19909;-68
2022/11/20 07:32:37;;;;;;;;;;;-3.20;99.90;;;;;;5036777;28;19909;-69
2022/11/20 07:35:02;;;;;;;;;;;-3.00;99.90;;;;;;5036730;28;19909;-67
2022/11/20 07:37:28;;;;;;;;;;;-2.80;99.90;;;;;;5036566;28;20020;-67
2022/11/20 07:39:53;;;;;;;;;;;-2.70;99.90;;;;;;5036658;28;19909;-67
2022/11/20 07:42:18;;;;;;;;;;;-2.50;99.90;;;;;;5036575;28;19913;-67
2022/11/20 07:44:44;;;;;;;;;;;-2.40;99.90;;;;;;5036557;28;19936;-67
2022/11/20 07:47:09;;;;;;;;;;;-2.40;99.90;;;;;;5018997;28;20385;-65
2022/11/20 07:49:35;;;;;;;;;;;-2.40;99.90;;;;;;5036407;28;20279;-66
2022/11/20 07:52:00;;;;;;;;;;;-2.30;99.90;;;;;;5036396;28;19920;-66
2022/11/20 07:54:26;;;;;;;;;;;-2.30;99.90;;;;;;5036379;28;19917;-68
2022/11/20 07:56:51;;;;;;;;;;;-2.20;99.90;;;;;;5036271;28;19924;-67
2022/11/20 07:59:17;;;;;;;;;;;-2.20;99.90;;;;;;5036326;28;20437;-67
2022/11/20 08:01:42;;;;;;;;;;;-2.20;99.90;;;;;;5036225;28;20449;-67
2022/11/20 08:04:08;;;;;;;;;;;-2.10;99.90;;;;;;5036451;28;19917;-66
2022/11/20 08:06:34;;;;;;;;;;;-2.00;99.90;;;;;;5036137;28;19963;-66
2022/11/20 08:08:59;;;;;;;;;;;-1.80;99.90;;;;;;5036090;28;20390;-67
2022/11/20 08:14:11;;;;;;;;;;;-0.40;99.90;;;;;;5035779;28;19909;-66
2022/11/20 08:16:37;;;;;;;;;;;-0.30;99.90;;;;;;5036244;28;19944;-67
2022/11/20 08:19:02;;;;;;;;;;;0.50;99.90;;;;;;5035920;28;19916;-68
2022/11/20 08:21:29;;;;;;;;;;;1.50;99.90;;;;;;5036156;28;19959;-68
2022/11/20 08:23:55;;;;;;;;;;;1.90;99.90;;;;;;5035855;28;20362;-68
2022/11/20 08:26:20;;;;;;;;;;;2.10;99.90;;;;;;5035763;28;19913;-68
2022/11/20 08:28:46;;;;;;;;;;;1.70;99.90;;;;;;5035717;28;19996;-67
2022/11/20 08:31:12;;;;;;;;;;;1.20;99.90;;;;;;5036013;28;20363;-67
2022/11/20 08:33:37;;;;;;;;;;;1.30;99.90;;;;;;5035670;28;19913;-68
2022/11/20 08:36:03;;;;;;;;;;;2.00;99.90;;;;;;5035494;28;19915;-68
2022/11/20 08:38:29;;;;;;;;;;;2.80;99.90;;;;;;5017804;28;20401;-67
2022/11/20 08:41:32;;;;;;;;;;;3.50;99.90;;;;;;5035496;28;20367;-69
2022/11/20 08:43:43;;;;;;;;;;;4.20;99.90;;;;;;5035293;28;19963;-68
2022/11/20 08:46:09;;;;;;;;;;;4.60;99.90;;;;;;5035391;28;20310;-68
2022/11/20 08:48:34;;;;;;;;;;;5.10;99.90;;;;;;5035659;28;19909;-68
2022/11/20 08:51:00;;;;;;;;;;;5.20;99.90;;;;;;5035323;28;19936;-68
2022/11/20 08:53:26;;;;;;;;;;;5.30;99.90;;;;;;5035557;28;20373;-68
2022/11/20 08:55:51;;;;;;;;;;;5.50;99.90;;;;;;5035210;28;19916;-68
2022/11/20 08:58:17;;;;;;;;;;;5.80;99.90;;;;;;5035128;28;20295;-68
2022/11/20 09:00:43;;;;;;;;;;;6.20;99.90;;;;;;5035154;28;19916;-68
2022/11/20 09:03:08;;;;;;;;;;;6.50;99.90;;;;;;5035029;28;19913;-68
2022/11/20 09:05:34;;;;;;;;;;;6.30;99.90;;;;;;5034943;28;19957;-68
2022/11/20 09:07:59;;;;;;;;;;;5.90;99.90;;;;;;5034946;28;20000;-69
2022/11/20 09:10:26;;;;;;;;;;;5.90;99.90;;;;;;5017315;28;19909;-69
2022/11/20 09:12:52;;;;;;;;;;;6.20;99.90;;;;;;5034904;28;19909;-69
2022/11/20 09:15:17;;;;;;;;;;;6.90;99.90;;;;;;5017077;28;19909;-68
2022/11/20 09:17:50;;;;;;;;;;;6.10;99.90;;;;;;5000670;28;19913;-69
2022/11/20 09:20:16;;;;;;;;;;;6.60;99.90;;;;;;5034759;28;19962;-69
2022/11/20 09:22:41;;;;;;;;;;;7.20;99.90;;;;;;5034724;28;19909;-68
2022/11/20 09:25:07;;;;;;;;;;;7.20;99.90;;;;;;5034758;28;19910;-69
2022/11/20 09:27:32;;;;;;;;;;;8.10;99.90;;;;;;5034649;28;19955;-68
2022/11/20 09:29:58;;;;;;;;;;;7.70;99.90;;;;;;5034630;28;20090;-68
2022/11/20 09:32:23;;;;;;;;;;;7.90;99.90;;;;;;5016815;28;20016;-68
2022/11/20 09:34:48;;;;;;;;;;;7.90;99.90;;;;;;5034466;28;20401;-68
2022/11/20 09:37:14;;;;;;;;;;;7.90;99.90;;;;;;5034253;28;20295;-68
2022/11/20 09:39:39;;;;;;;;;;;8.40;99.90;;;;;;5034395;28;20278;-68
2022/11/20 09:42:17;;;;;;;;;;;8.30;99.90;;;;;;5034368;28;19909;-69
2022/11/20 09:45:02;;;;;;;;;;;8.20;99.90;;;;;;5034345;28;20052;-69
2022/11/20 09:47:37;;;;;;;;;;;9.00;99.90;;;;;;5033698;28;19909;-68
2022/11/20 09:50:22;;;;;;;;;;;9.40;99.90;;;;;;5034267;28;19910;-69
2022/11/20 09:53:03;;;;;;;;;;;9.50;99.90;;;;;;5034062;28;19909;-68
2022/11/20 09:55:29;;;;;;;;;;;10.20;99.90;;;;;;5034138;28;19913;-68
2022/11/20 09:57:56;;;;;;;;;;;8.70;99.90;;;;;;5033965;28;19917;-68
2022/11/20 10:00:23;;;;;;;;;;;8.80;99.90;;;;;;5016424;28;19909;-68
2022/11/20 10:02:52;;;;;;;;;;;8.70;99.90;;;;;;5016236;28;19909;-69
2022/11/20 10:05:22;;;;;;;;;;;8.50;99.90;;;;;;5033890;28;20375;-68
2022/11/20 10:08:09;;;;;;;;;;;8.60;99.90;;;;;;5033978;28;19918;-69
2022/11/20 10:10:38;;;;;;;;;;;8.90;99.90;;;;;;5033951;28;19909;-69
2022/11/20 10:13:11;;;;;;;;;;;9.20;99.90;;;;;;5033886;28;19932;-69
2022/11/20 10:15:55;;;;;;;;;;;9.90;99.90;;;;;;5016287;28;19909;-69
2022/11/20 10:18:37;;;;;;;;;;;9.30;99.90;;;;;;5033700;28;19936;-68
2022/11/20 10:21:23;;;;;;;;;;;9.10;99.90;;;;;;5016100;28;20405;-69
2022/11/20 10:24:10;;;;;;;;;;;8.90;99.90;;;;;;5033610;28;20089;-69
2022/11/20 10:26:55;;;;;;;;;;;9.20;99.90;;;;;;5033687;28;19949;-67
2022/11/20 10:29:28;;;;;;;;;;;9.30;99.90;;;;;;5033562;28;19909;-68
2022/11/20 10:31:56;;;;;;;;;;;8.70;99.90;;;;;;5033651;28;19909;-68
2022/11/20 10:34:42;;;;;;;;;;;8.40;99.90;;;;;;5016163;28;19916;-68
2022/11/20 10:37:12;;;;;;;;;;;8.50;99.90;;;;;;5033162;28;19917;-68
2022/11/20 10:39:57;;;;;;;;;;;8.30;99.90;;;;;;5033570;28;20367;-68
2022/11/20 10:42:29;;;;;;;;;;;8.90;99.90;;;;;;5033424;28;19909;-68
2022/11/20 10:45:00;;;;;;;;;;;8.70;99.90;;;;;;5033825;28;19909;-68
2022/11/20 10:47:27;;;;;;;;;;;8.70;99.90;;;;;;5033529;28;19909;-68
2022/11/20 10:49:53;;;;;;;;;;;8.30;99.90;;;;;;5015918;28;19909;-68
2022/11/20 10:52:39;;;;;;;;;;;8.40;99.90;;;;;;5033462;28;19913;-68
2022/11/20 10:55:24;;;;;;;;;;;8.20;99.90;;;;;;5033384;28;19948;-68
2022/11/20 10:57:54;;;;;;;;;;;8.60;99.90;;;;;;5033360;28;19963;-67
2022/11/20 11:00:19;;;;;;;;;;;9.00;99.90;;;;;;5037419;28;19920;-68
2022/11/20 11:02:48;;;;;;;;;;;9.30;99.90;;;;;;5019547;28;19910;-68
2022/11/20 11:05:33;;;;;;;;;;;8.70;99.90;;;;;;5037599;28;19909;-68
2022/11/20 11:07:59;;;;;;;;;;;8.40;99.90;;;;;;5037162;28;20286;-67
2022/11/20 11:10:30;;;;;;;;;;;8.10;99.90;;;;;;5037243;28;20011;-68
2022/11/20 11:12:55;;;;;;;;;;;7.70;99.90;;;;;;5037156;28;19916;-68
2022/11/20 11:15:26;;;;;;;;;;;7.60;99.90;;;;;;5019427;28;19909;-67
2022/11/20 11:17:52;;;;;;;;;;;7.20;99.90;;;;;;5037217;28;20389;-68
2022/11/20 11:20:19;;;;;;;;;;;7.10;99.90;;;;;;5037054;28;19909;-67
2022/11/20 11:22:47;;;;;;;;;;;7.20;99.90;;;;;;5019283;28;19916;-67
2022/11/20 11:25:29;;;;;;;;;;;7.10;99.90;;;;;;5036942;28;20367;-68
2022/11/20 11:27:56;;;;;;;;;;;7.00;99.90;;;;;;5036916;28;20007;-68
2022/11/20 11:30:29;;;;;;;;;;;7.00;99.90;;;;;;5036846;28;20294;-67
2022/11/20 11:33:11;;;;;;;;;;;6.50;99.90;;;;;;5019419;28;19910;-69
2022/11/20 11:35:57;;;;;;;;;;;6.40;99.90;;;;;;5036787;28;19932;-67
2022/11/20 11:38:29;;;;;;;;;;;6.40;99.90;;;;;;5036399;28;20390;-69
2022/11/20 11:40:56;;;;;;;;;;;6.60;99.90;;;;;;5036668;28;19909;-68
2022/11/20 11:46:28;;;;;;;;;;;6.60;99.90;;;;;;5036392;28;19913;-68
2022/11/20 11:48:58;;;;;;;;;;;6.30;99.90;;;;;;5036366;28;19916;-68
2022/11/20 11:51:29;;;;;;;;;;;6.40;99.90;;;;;;5036563;28;19931;-68
2022/11/20 11:53:55;;;;;;;;;;;6.50;99.90;;;;;;5036308;28;19913;-68
2022/11/20 11:56:21;;;;;;;;;;;6.50;99.90;;;;;;5018547;28;19909;-68
2022/11/20 11:58:48;;;;;;;;;;;6.30;99.90;;;;;;5018637;28;19909;-68
2022/11/20 12:01:27;;;;;;;;;;;6.20;99.90;;;;;;5036283;28;20287;-68
2022/11/20 12:04:02;;;;;;;;;;;5.90;99.90;;;;;;5036266;28;20394;-68
2022/11/20 12:06:29;;;;;;;;;;;5.30;99.90;;;;;;5036234;28;20363;-68
2022/11/20 12:08:59;;;;;;;;;;;5.00;99.90;;;;;;5035651;28;19916;-68
2022/11/20 12:11:44;;;;;;;;;;;4.90;99.90;;;;;;5036087;28;19913;-68
2022/11/20 12:14:23;;;;;;;;;;;5.00;99.90;;;;;;5035994;28;20378;-68
2022/11/20 12:16:50;;;;;;;;;;;5.10;99.90;;;;;;5019031;28;19920;-68
2022/11/20 12:19:15;;;;;;;;;;;5.10;99.90;;;;;;5035936;28;20432;-68
2022/11/20 12:21:51;;;;;;;;;;;5.00;99.90;;;;;;5035958;28;19913;-68
2022/11/20 12:27:16;;;;;;;;;;;4.90;99.90;;;;;;5091325;27;19919;-65
2022/11/20 12:29:51;;;;;;;;;;;5.10;99.90;;;;;;5091136;28;19912;-65
2022/11/20 12:32:31;;;;;;;;;;;5.20;99.90;;;;;;5091098;28;19955;-65
2022/11/20 12:35:10;;;;;;;;;;;4.90;99.90;;;;;;5091081;28;20374;-65
2022/11/20 12:37:44;;;;;;;;;;;4.90;99.90;;;;;;5091056;28;19909;-65
2022/11/20 12:40:19;;;;;;;;;;;4.90;99.90;;;;;;5091238;28;20369;-65
2022/11/20 12:45:59;;;;;;;;;;;4.60;99.90;;;;;;5090658;28;19916;-65
2022/11/20 12:48:34;;;;;;;;;;;4.50;99.90;;;;;;5090859;28;19915;-65
2022/11/20 12:51:19;;;;;;;;;;;4.40;99.90;;;;;;5090877;28;19916;-65
2022/11/20 12:53:54;;;;;;;;;;;4.30;99.90;;;;;;5090735;28;19999;-65
2022/11/20 12:56:39;;;;;;;;;;;4.40;99.90;;;;;;5089379;28;19920;-65
2022/11/20 12:59:24;;;;;;;;;;;4.30;99.90;;;;;;5090709;28;20324;-66
2022/11/20 13:01:53;;;;;;;;;;;4.20;99.90;;;;;;5090559;28;19912;-65
2022/11/20 13:07:00;;;;;;;;;;;4.10;99.90;;;;;;5091355;27;19913;-65
2022/11/20 13:09:26;;;;;;;;;;;4.10;99.90;;;;;;5091193;28;19962;-65
2022/11/20 13:14:42;;;;;;;;;;;4.10;99.90;;;;;;5091393;28;19919;-65
2022/11/20 13:17:27;;;;;;;;;;;4.20;99.90;;;;;;5089906;28;19912;-65
2022/11/20 13:19:54;;;;;;;;;;;4.30;99.90;;;;;;5091187;28;19912;-65
2022/11/20 13:22:27;;;;;;;;;;;4.40;99.90;;;;;;5091066;28;19915;-65
2022/11/20 13:24:53;;;;;;;;;;;4.50;99.90;;;;;;5091039;28;19915;-65
2022/11/20 13:27:20;;;;;;;;;;;4.50;99.90;;;;;;5090955;28;20350;-64
2022/11/20 13:29:47;;;;;;;;;;;4.40;99.90;;;;;;5123979;28;19909;-64
2022/11/20 13:32:14;;;;;;;;;;;4.40;99.90;;;;;;5090863;28;20013;-65
2022/11/20 13:34:50;;;;;;;;;;;4.40;99.90;;;;;;5091113;28;19941;-65
2022/11/20 13:37:26;;;;;;;;;;;4.30;99.90;;;;;;5090826;28;19908;-65
2022/11/20 13:39:52;;;;;;;;;;;4.20;99.90;;;;;;5090721;28;19916;-65
2022/11/20 13:42:21;;;;;;;;;;;4.00;99.90;;;;;;5090710;28;19908;-65
2022/11/20 13:44:50;;;;;;;;;;;3.90;99.90;;;;;;5123444;28;20350;-66
2022/11/20 13:47:24;;;;;;;;;;;3.90;99.90;;;;;;5123787;28;20380;-65
2022/11/20 13:49:51;;;;;;;;;;;3.80;99.90;;;;;;5090557;28;20339;-65
2022/11/20 13:55:18;;;;;;;;;;;3.80;99.90;;;;;;5091377;27;19919;-65
2022/11/20 13:58:03;;;;;;;;;;;3.80;99.90;;;;;;5091135;28;19920;-65
2022/11/20 14:00:29;;;;;;;;;;;3.90;99.90;;;;;;5091206;28;19973;-65
2022/11/20 14:03:01;;;;;;;;;;;3.90;99.90;;;;;;5091043;28;20281;-65
2022/11/20 14:05:26;;;;;;;;;;;3.90;99.90;;;;;;5091023;28;19909;-65
2022/11/20 14:07:52;;;;;;;;;;;3.90;99.90;;;;;;5090961;28;19954;-65
2022/11/20 14:10:20;;;;;;;;;;;3.90;99.90;;;;;;5090941;28;20377;-65
2022/11/20 14:12:45;;;;;;;;;;;3.80;99.90;;;;;;5090775;28;19909;-65
2022/11/20 14:15:28;;;;;;;;;;;3.80;99.90;;;;;;5091108;28;20007;-65
2022/11/20 14:17:54;;;;;;;;;;;3.70;99.90;;;;;;5090810;28;20383;-64
2022/11/20 14:20:23;;;;;;;;;;;3.70;99.90;;;;;;5090729;28;19912;-65
2022/11/20 14:22:49;;;;;;;;;;;3.70;99.90;;;;;;5090600;28;19908;-65
2022/11/20 14:27:55;;;;;;;;;;;3.70;99.90;;;;;;5071134;28;20396;-66
2022/11/20 14:30:21;;;;;;;;;;;3.60;99.90;;;;;;5086915;28;19966;-65
2022/11/20 14:32:47;;;;;;;;;;;3.60;99.90;;;;;;5070897;28;19915;-64
2022/11/20 14:35:20;;;;;;;;;;;3.50;99.90;;;;;;5070876;28;19909;-65
2022/11/20 14:37:45;;;;;;;;;;;3.60;99.90;;;;;;5070786;28;20278;-65
2022/11/20 14:40:31;;;;;;;;;;;3.50;99.90;;;;;;5070787;28;19909;-65
2022/11/20 14:42:57;;;;;;;;;;;3.50;99.90;;;;;;5070617;28;19909;-65
2022/11/20 14:45:23;;;;;;;;;;;3.50;99.90;;;;;;5086302;28;19999;-65
2022/11/20 14:47:49;;;;;;;;;;;3.50;99.90;;;;;;5070659;28;20011;-65
2022/11/20 14:50:18;;;;;;;;;;;3.50;99.90;;;;;;5070817;28;19908;-65
2022/11/20 14:52:52;;;;;;;;;;;3.50;99.90;;;;;;5070490;28;19909;-67
2022/11/20 14:55:26;;;;;;;;;;;3.50;99.90;;;;;;5070451;28;19932;-65
2022/11/20 14:58:11;;;;;;;;;;;3.50;99.90;;;;;;5070434;28;19944;-65
2022/11/20 15:00:37;;;;;;;;;;;3.50;99.90;;;;;;5070328;28;19935;-67